sensor_id;sensor_type;location;lat;lon;timestamp;temperature;humidity
5172;DHT22;2605;49.770;9.868;2023-05-19T00:02:12;9.00;99.90
5172;DHT22;2605;49.770;9.868;2023-05-19T00:04:40;9.00;99.90
5172;DHT22;2605;49.770;9.868;2023-05-19T00:07:08;9.00;99.90
5172;DHT22;2605;49.770;9.868;2023-05-19T00:09:34;8.90;99.90
5172;DHT22;2605;49.770;9.868;2023-05-19T00:12:00;8.90;99.90
5172;DHT22;2605;49.770;9.868;2023-05-19T00:14:26;8.80;99.90
5172;DHT22;2605;49.770;9.868;2023-05-19T00:16:53;8.80;99.90
5172;DHT22;2605;49.770;9.868;2023-05-19T00:19:20;8.80;99.90
5172;DHT22;2605;49.770;9.868;2023-05-19T00:21:46;8.80;99.90
5172;DHT22;2605;49.770;9.868;2023-05-19T00:24:11;8.70;99.90
5172;DHT22;2605;49.770;9.868;2023-05-19T00:26:37;8.70;99.90
5172;DHT22;2605;49.770;9.868;2023-05-19T00:29:03;8.80;99.90
5172;DHT22;2605;49.770;9.868;2023-05-19T00:31:28;8.60;99.90
5172;DHT22;2605;49.770;9.868;2023-05-19T00:33:55;8.60;99.90
5172;DHT22;2605;49.770;9.868;2023-05-19T00:36:21;8.50;99.90
5172;DHT22;2605;49.770;9.868;2023-05-19T00:38:47;8.50;99.90
5172;DHT22;2605;49.770;9.868;2023-05-19T00:41:12;8.40;99.90
5172;DHT22;2605;49.770;9.868;2023-05-19T00:43:38;8.40;99.90
5172;DHT22;2605;49.770;9.868;2023-05-19T00:46:04;8.30;99.90
5172;DHT22;2605;49.770;9.868;2023-05-19T00:48:29;8.30;99.90
5172;DHT22;2605;49.770;9.868;2023-05-19T00:50:56;8.30;99.90
5172;DHT22;2605;49.770;9.868;2023-05-19T00:53:29;8.20;99.90
5172;DHT22;2605;49.770;9.868;2023-05-19T00:55:55;8.20;99.90
5172;DHT22;2605;49.770;9.868;2023-05-19T00:58:21;8.20;99.90
5172;DHT22;2605;49.770;9.868;2023-05-19T01:00:48;8.30;99.90
5172;DHT22;2605;49.770;9.868;2023-05-19T01:03:14;8.10;99.90
5172;DHT22;2605;49.770;9.868;2023-05-19T01:05:44;8.10;99.90
5172;DHT22;2605;49.770;9.868;2023-05-19T01:08:10;8.10;99.90
5172;DHT22;2605;49.770;9.868;2023-05-19T01:10:35;8.10;99.90
5172;DHT22;2605;49.770;9.868;2023-05-19T01:13:05;8.10;99.90
5172;DHT22;2605;49.770;9.868;2023-05-19T01:15:44;8.20;99.90
5172;DHT22;2605;49.770;9.868;2023-05-19T01:18:32;8.20;99.90
5172;DHT22;2605;49.770;9.868;2023-05-19T01:23:54;8.10;99.90
5172;DHT22;2605;49.770;9.868;2023-05-19T01:29:21;8.10;99.90
5172;DHT22;2605;49.770;9.868;2023-05-19T01:31:54;8.10;99.90
5172;DHT22;2605;49.770;9.868;2023-05-19T01:34:22;8.00;99.90
5172;DHT22;2605;49.770;9.868;2023-05-19T01:36:50;8.00;99.90
5172;DHT22;2605;49.770;9.868;2023-05-19T01:39:18;8.00;99.90
5172;DHT22;2605;49.770;9.868;2023-05-19T01:41:44;8.00;99.90
5172;DHT22;2605;49.770;9.868;2023-05-19T01:44:11;7.90;99.90
5172;DHT22;2605;49.770;9.868;2023-05-19T01:46:37;7.90;99.90
5172;DHT22;2605;49.770;9.868;2023-05-19T01:49:04;7.90;99.90
5172;DHT22;2605;49.770;9.868;2023-05-19T01:51:30;7.90;99.90
5172;DHT22;2605;49.770;9.868;2023-05-19T01:53:56;7.80;99.90
5172;DHT22;2605;49.770;9.868;2023-05-19T01:56:33;7.80;99.90
5172;DHT22;2605;49.770;9.868;2023-05-19T01:59:10;7.80;99.90
5172;DHT22;2605;49.770;9.868;2023-05-19T02:01:52;7.80;99.90
5172;DHT22;2605;49.770;9.868;2023-05-19T02:07:02;7.90;99.90
5172;DHT22;2605;49.770;9.868;2023-05-19T02:09:52;7.90;99.90
5172;DHT22;2605;49.770;9.868;2023-05-19T02:12:33;7.90;99.90
5172;DHT22;2605;49.770;9.868;2023-05-19T02:15:16;7.90;99.90
5172;DHT22;2605;49.770;9.868;2023-05-19T02:17:43;7.90;99.90
5172;DHT22;2605;49.770;9.868;2023-05-19T02:20:16;7.90;99.90
5172;DHT22;2605;49.770;9.868;2023-05-19T02:22:42;7.90;99.90
5172;DHT22;2605;49.770;9.868;2023-05-19T02:25:08;7.90;99.90
5172;DHT22;2605;49.770;9.868;2023-05-19T02:27:37;7.90;99.90
5172;DHT22;2605;49.770;9.868;2023-05-19T02:30:04;8.00;99.90
5172;DHT22;2605;49.770;9.868;2023-05-19T02:32:31;8.00;99.90
5172;DHT22;2605;49.770;9.868;2023-05-19T02:34:56;8.00;99.90
5172;DHT22;2605;49.770;9.868;2023-05-19T02:37:22;8.00;99.90
5172;DHT22;2605;49.770;9.868;2023-05-19T02:39:49;8.00;99.90
5172;DHT22;2605;49.770;9.868;2023-05-19T02:42:14;8.00;99.90
5172;DHT22;2605;49.770;9.868;2023-05-19T02:44:42;8.00;99.90
5172;DHT22;2605;49.770;9.868;2023-05-19T02:47:08;8.00;99.90
5172;DHT22;2605;49.770;9.868;2023-05-19T02:49:33;8.00;99.90
5172;DHT22;2605;49.770;9.868;2023-05-19T02:52:02;8.00;99.90
5172;DHT22;2605;49.770;9.868;2023-05-19T02:54:32;8.00;99.90
5172;DHT22;2605;49.770;9.868;2023-05-19T02:56:57;8.00;99.90
5172;DHT22;2605;49.770;9.868;2023-05-19T02:59:23;8.00;99.90
5172;DHT22;2605;49.770;9.868;2023-05-19T03:01:50;8.00;99.90
5172;DHT22;2605;49.770;9.868;2023-05-19T03:04:15;8.00;99.90
5172;DHT22;2605;49.770;9.868;2023-05-19T03:06:44;7.90;99.90
5172;DHT22;2605;49.770;9.868;2023-05-19T03:09:10;8.00;99.90
5172;DHT22;2605;49.770;9.868;2023-05-19T03:11:35;8.00;99.90
5172;DHT22;2605;49.770;9.868;2023-05-19T03:14:01;8.00;99.90
5172;DHT22;2605;49.770;9.868;2023-05-19T03:16:26;8.00;99.90
5172;DHT22;2605;49.770;9.868;2023-05-19T03:18:52;7.90;99.90
5172;DHT22;2605;49.770;9.868;2023-05-19T03:21:17;8.00;99.90
5172;DHT22;2605;49.770;9.868;2023-05-19T03:23:43;7.90;99.90
5172;DHT22;2605;49.770;9.868;2023-05-19T03:26:08;7.90;99.90
5172;DHT22;2605;49.770;9.868;2023-05-19T03:28:34;7.90;99.90
5172;DHT22;2605;49.770;9.868;2023-05-19T03:30:59;7.90;99.90
5172;DHT22;2605;49.770;9.868;2023-05-19T03:33:25;7.90;99.90
5172;DHT22;2605;49.770;9.868;2023-05-19T03:35:55;7.90;99.90
5172;DHT22;2605;49.770;9.868;2023-05-19T03:38:20;7.90;99.90
5172;DHT22;2605;49.770;9.868;2023-05-19T03:40:45;8.00;99.90
5172;DHT22;2605;49.770;9.868;2023-05-19T03:43:11;8.00;99.90
5172;DHT22;2605;49.770;9.868;2023-05-19T03:45:37;8.00;99.90
5172;DHT22;2605;49.770;9.868;2023-05-19T03:48:03;8.00;99.90
5172;DHT22;2605;49.770;9.868;2023-05-19T03:50:28;8.00;99.90
5172;DHT22;2605;49.770;9.868;2023-05-19T03:52:55;8.00;99.90
5172;DHT22;2605;49.770;9.868;2023-05-19T03:55:21;8.00;99.90
5172;DHT22;2605;49.770;9.868;2023-05-19T03:57:46;8.10;99.90
5172;DHT22;2605;49.770;9.868;2023-05-19T04:00:13;8.10;99.90
5172;DHT22;2605;49.770;9.868;2023-05-19T04:02:39;8.20;99.90
5172;DHT22;2605;49.770;9.868;2023-05-19T04:05:09;8.30;99.90
5172;DHT22;2605;49.770;9.868;2023-05-19T04:07:35;8.30;99.90
5172;DHT22;2605;49.770;9.868;2023-05-19T04:10:05;8.40;99.90
5172;DHT22;2605;49.770;9.868;2023-05-19T04:12:31;8.40;99.90
5172;DHT22;2605;49.770;9.868;2023-05-19T04:14:57;8.50;99.90
5172;DHT22;2605;49.770;9.868;2023-05-19T04:17:23;8.60;99.90
5172;DHT22;2605;49.770;9.868;2023-05-19T04:19:51;8.70;99.90
5172;DHT22;2605;49.770;9.868;2023-05-19T04:22:16;8.80;99.90
5172;DHT22;2605;49.770;9.868;2023-05-19T04:24:41;8.90;99.90
5172;DHT22;2605;49.770;9.868;2023-05-19T04:27:07;8.90;99.90
5172;DHT22;2605;49.770;9.868;2023-05-19T04:29:36;9.10;99.90
5172;DHT22;2605;49.770;9.868;2023-05-19T04:32:03;9.10;99.90
5172;DHT22;2605;49.770;9.868;2023-05-19T04:34:35;9.20;99.90
5172;DHT22;2605;49.770;9.868;2023-05-19T04:37:05;9.30;99.90
5172;DHT22;2605;49.770;9.868;2023-05-19T04:39:31;9.40;99.90
5172;DHT22;2605;49.770;9.868;2023-05-19T04:41:56;9.40;99.90
5172;DHT22;2605;49.770;9.868;2023-05-19T04:44:22;9.50;99.90
5172;DHT22;2605;49.770;9.868;2023-05-19T04:46:47;9.50;99.90
5172;DHT22;2605;49.770;9.868;2023-05-19T04:49:14;9.60;99.90
5172;DHT22;2605;49.770;9.868;2023-05-19T04:51:39;9.60;99.90
5172;DHT22;2605;49.770;9.868;2023-05-19T04:54:10;9.70;99.90
5172;DHT22;2605;49.770;9.868;2023-05-19T04:56:38;9.80;99.90
5172;DHT22;2605;49.770;9.868;2023-05-19T04:59:04;9.90;99.90
5172;DHT22;2605;49.770;9.868;2023-05-19T05:01:31;10.00;99.90
5172;DHT22;2605;49.770;9.868;2023-05-19T05:03:57;10.10;99.90
5172;DHT22;2605;49.770;9.868;2023-05-19T05:06:23;10.20;99.90
5172;DHT22;2605;49.770;9.868;2023-05-19T05:08:51;10.30;99.90
5172;DHT22;2605;49.770;9.868;2023-05-19T05:11:17;10.40;99.90
5172;DHT22;2605;49.770;9.868;2023-05-19T05:13:43;10.50;99.90
5172;DHT22;2605;49.770;9.868;2023-05-19T05:16:09;10.60;99.90
5172;DHT22;2605;49.770;9.868;2023-05-19T05:18:35;10.70;99.90
5172;DHT22;2605;49.770;9.868;2023-05-19T05:21:03;10.70;99.90
5172;DHT22;2605;49.770;9.868;2023-05-19T05:23:29;10.80;99.90
5172;DHT22;2605;49.770;9.868;2023-05-19T05:25:55;10.90;99.90
5172;DHT22;2605;49.770;9.868;2023-05-19T05:28:20;11.00;99.90
5172;DHT22;2605;49.770;9.868;2023-05-19T05:30:46;11.10;99.90
5172;DHT22;2605;49.770;9.868;2023-05-19T05:33:11;11.20;99.90
5172;DHT22;2605;49.770;9.868;2023-05-19T05:35:37;11.40;99.90
5172;DHT22;2605;49.770;9.868;2023-05-19T05:38:02;11.60;99.90
5172;DHT22;2605;49.770;9.868;2023-05-19T05:40:28;11.70;99.90
5172;DHT22;2605;49.770;9.868;2023-05-19T05:42:53;11.80;99.90
5172;DHT22;2605;49.770;9.868;2023-05-19T05:45:25;11.90;99.90
5172;DHT22;2605;49.770;9.868;2023-05-19T05:47:51;11.90;99.90
5172;DHT22;2605;49.770;9.868;2023-05-19T05:50:17;12.00;99.90
5172;DHT22;2605;49.770;9.868;2023-05-19T05:52:45;12.00;99.90
5172;DHT22;2605;49.770;9.868;2023-05-19T05:55:11;12.10;99.90
5172;DHT22;2605;49.770;9.868;2023-05-19T05:57:37;12.00;99.90
5172;DHT22;2605;49.770;9.868;2023-05-19T06:00:06;12.10;99.90
5172;DHT22;2605;49.770;9.868;2023-05-19T06:02:34;12.10;99.90
5172;DHT22;2605;49.770;9.868;2023-05-19T06:05:00;12.20;99.90
5172;DHT22;2605;49.770;9.868;2023-05-19T06:07:26;12.30;99.90
5172;DHT22;2605;49.770;9.868;2023-05-19T06:09:52;12.30;99.90
5172;DHT22;2605;49.770;9.868;2023-05-19T06:12:17;12.40;99.90
5172;DHT22;2605;49.770;9.868;2023-05-19T06:14:43;12.40;99.90
5172;DHT22;2605;49.770;9.868;2023-05-19T06:17:08;12.30;99.90
5172;DHT22;2605;49.770;9.868;2023-05-19T06:19:34;12.40;99.90
5172;DHT22;2605;49.770;9.868;2023-05-19T06:21:59;12.40;99.90
5172;DHT22;2605;49.770;9.868;2023-05-19T06:24:25;12.40;99.90
5172;DHT22;2605;49.770;9.868;2023-05-19T06:26:51;12.50;99.90
5172;DHT22;2605;49.770;9.868;2023-05-19T06:29:16;12.70;99.90
5172;DHT22;2605;49.770;9.868;2023-05-19T06:31:42;12.90;99.90
5172;DHT22;2605;49.770;9.868;2023-05-19T06:34:07;13.10;99.90
5172;DHT22;2605;49.770;9.868;2023-05-19T06:36:39;13.10;99.90
5172;DHT22;2605;49.770;9.868;2023-05-19T06:39:05;13.20;99.90
5172;DHT22;2605;49.770;9.868;2023-05-19T06:41:31;13.30;99.90
5172;DHT22;2605;49.770;9.868;2023-05-19T06:43:56;13.50;99.90
5172;DHT22;2605;49.770;9.868;2023-05-19T06:46:22;13.60;99.90
5172;DHT22;2605;49.770;9.868;2023-05-19T06:48:47;13.60;99.90
5172;DHT22;2605;49.770;9.868;2023-05-19T06:51:13;13.50;99.90
5172;DHT22;2605;49.770;9.868;2023-05-19T06:53:40;13.60;99.90
5172;DHT22;2605;49.770;9.868;2023-05-19T06:56:06;13.70;99.90
5172;DHT22;2605;49.770;9.868;2023-05-19T06:58:32;13.70;99.90
5172;DHT22;2605;49.770;9.868;2023-05-19T07:00:57;13.70;99.90
5172;DHT22;2605;49.770;9.868;2023-05-19T07:03:23;13.70;99.90
5172;DHT22;2605;49.770;9.868;2023-05-19T07:05:48;13.70;99.90
5172;DHT22;2605;49.770;9.868;2023-05-19T07:08:14;13.70;99.90
5172;DHT22;2605;49.770;9.868;2023-05-19T07:10:40;13.80;99.90
5172;DHT22;2605;49.770;9.868;2023-05-19T07:13:05;13.90;99.90
5172;DHT22;2605;49.770;9.868;2023-05-19T07:15:30;14.00;99.90
5172;DHT22;2605;49.770;9.868;2023-05-19T07:17:57;14.10;99.90
5172;DHT22;2605;49.770;9.868;2023-05-19T07:20:22;14.00;99.90
5172;DHT22;2605;49.770;9.868;2023-05-19T07:22:48;14.10;99.90
5172;DHT22;2605;49.770;9.868;2023-05-19T07:25:13;14.10;99.90
5172;DHT22;2605;49.770;9.868;2023-05-19T07:27:39;14.30;99.90
5172;DHT22;2605;49.770;9.868;2023-05-19T07:30:05;14.40;99.90
5172;DHT22;2605;49.770;9.868;2023-05-19T07:32:31;14.50;99.90
5172;DHT22;2605;49.770;9.868;2023-05-19T07:34:56;14.50;99.90
5172;DHT22;2605;49.770;9.868;2023-05-19T07:37:22;14.60;99.90
5172;DHT22;2605;49.770;9.868;2023-05-19T07:39:47;14.70;99.90
5172;DHT22;2605;49.770;9.868;2023-05-19T07:42:13;14.80;99.90
5172;DHT22;2605;49.770;9.868;2023-05-19T07:44:38;15.00;99.90
5172;DHT22;2605;49.770;9.868;2023-05-19T07:47:04;15.20;99.90
5172;DHT22;2605;49.770;9.868;2023-05-19T07:49:30;15.30;99.90
5172;DHT22;2605;49.770;9.868;2023-05-19T07:51:56;15.50;99.90
5172;DHT22;2605;49.770;9.868;2023-05-19T07:54:21;15.80;99.90
5172;DHT22;2605;49.770;9.868;2023-05-19T07:56:47;16.00;99.90
5172;DHT22;2605;49.770;9.868;2023-05-19T07:59:13;16.10;99.90
5172;DHT22;2605;49.770;9.868;2023-05-19T08:01:38;16.00;99.90
5172;DHT22;2605;49.770;9.868;2023-05-19T08:04:04;16.20;99.90
5172;DHT22;2605;49.770;9.868;2023-05-19T08:06:30;16.40;99.90
5172;DHT22;2605;49.770;9.868;2023-05-19T08:08:56;16.70;99.90
5172;DHT22;2605;49.770;9.868;2023-05-19T08:11:21;17.10;99.90
5172;DHT22;2605;49.770;9.868;2023-05-19T08:13:47;17.10;99.90
5172;DHT22;2605;49.770;9.868;2023-05-19T08:16:14;17.50;99.90
5172;DHT22;2605;49.770;9.868;2023-05-19T08:18:39;17.60;99.90
5172;DHT22;2605;49.770;9.868;2023-05-19T08:21:05;17.90;99.90
5172;DHT22;2605;49.770;9.868;2023-05-19T08:23:30;17.70;99.90
5172;DHT22;2605;49.770;9.868;2023-05-19T08:25:56;17.20;99.90
5172;DHT22;2605;49.770;9.868;2023-05-19T08:28:21;17.30;99.90
5172;DHT22;2605;49.770;9.868;2023-05-19T08:30:48;17.20;99.90
5172;DHT22;2605;49.770;9.868;2023-05-19T08:33:14;16.90;99.90
5172;DHT22;2605;49.770;9.868;2023-05-19T08:35:39;17.10;99.90
5172;DHT22;2605;49.770;9.868;2023-05-19T08:38:05;16.80;99.90
5172;DHT22;2605;49.770;9.868;2023-05-19T08:40:32;16.70;99.90
5172;DHT22;2605;49.770;9.868;2023-05-19T08:42:59;16.70;99.90
5172;DHT22;2605;49.770;9.868;2023-05-19T08:45:25;16.70;99.90
5172;DHT22;2605;49.770;9.868;2023-05-19T08:47:51;16.90;99.90
5172;DHT22;2605;49.770;9.868;2023-05-19T08:50:21;17.00;99.90
5172;DHT22;2605;49.770;9.868;2023-05-19T08:52:54;17.20;99.90
5172;DHT22;2605;49.770;9.868;2023-05-19T08:55:34;17.40;99.90
5172;DHT22;2605;49.770;9.868;2023-05-19T08:58:02;17.60;99.90
5172;DHT22;2605;49.770;9.868;2023-05-19T09:00:28;17.70;99.90
5172;DHT22;2605;49.770;9.868;2023-05-19T09:02:54;17.80;99.90
5172;DHT22;2605;49.770;9.868;2023-05-19T09:05:20;17.90;99.90
5172;DHT22;2605;49.770;9.868;2023-05-19T09:07:46;17.90;99.90
5172;DHT22;2605;49.770;9.868;2023-05-19T09:10:12;18.20;99.90
5172;DHT22;2605;49.770;9.868;2023-05-19T09:12:41;18.80;99.90
5172;DHT22;2605;49.770;9.868;2023-05-19T09:15:09;19.20;99.90
5172;DHT22;2605;49.770;9.868;2023-05-19T09:17:36;19.30;99.90
5172;DHT22;2605;49.770;9.868;2023-05-19T09:20:02;18.90;99.90
5172;DHT22;2605;49.770;9.868;2023-05-19T09:22:30;19.10;99.90
5172;DHT22;2605;49.770;9.868;2023-05-19T09:24:56;19.20;99.90
5172;DHT22;2605;49.770;9.868;2023-05-19T09:27:21;19.20;99.90
5172;DHT22;2605;49.770;9.868;2023-05-19T09:29:48;19.20;99.90
5172;DHT22;2605;49.770;9.868;2023-05-19T09:32:25;19.40;99.90
5172;DHT22;2605;49.770;9.868;2023-05-19T09:34:52;18.90;99.90
5172;DHT22;2605;49.770;9.868;2023-05-19T09:37:22;18.10;99.90
5172;DHT22;2605;49.770;9.868;2023-05-19T09:39:48;18.10;99.90
5172;DHT22;2605;49.770;9.868;2023-05-19T09:42:23;18.00;99.90
5172;DHT22;2605;49.770;9.868;2023-05-19T09:44:50;17.80;99.90
5172;DHT22;2605;49.770;9.868;2023-05-19T09:47:23;17.60;99.90
5172;DHT22;2605;49.770;9.868;2023-05-19T09:49:49;17.70;99.90
5172;DHT22;2605;49.770;9.868;2023-05-19T09:52:16;18.00;99.90
5172;DHT22;2605;49.770;9.868;2023-05-19T09:54:43;18.00;99.90
5172;DHT22;2605;49.770;9.868;2023-05-19T09:57:09;17.90;99.90
5172;DHT22;2605;49.770;9.868;2023-05-19T09:59:34;18.00;99.90
5172;DHT22;2605;49.770;9.868;2023-05-19T10:02:03;18.30;99.90
5172;DHT22;2605;49.770;9.868;2023-05-19T10:04:32;18.70;99.90
5172;DHT22;2605;49.770;9.868;2023-05-19T10:06:58;18.30;99.90
5172;DHT22;2605;49.770;9.868;2023-05-19T10:09:30;18.60;99.90
5172;DHT22;2605;49.770;9.868;2023-05-19T10:11:57;18.80;99.90
5172;DHT22;2605;49.770;9.868;2023-05-19T10:14:25;19.10;99.90
5172;DHT22;2605;49.770;9.868;2023-05-19T10:16:51;19.60;99.90
5172;DHT22;2605;49.770;9.868;2023-05-19T10:19:22;19.40;99.90
5172;DHT22;2605;49.770;9.868;2023-05-19T10:21:52;19.60;99.90
5172;DHT22;2605;49.770;9.868;2023-05-19T10:24:18;19.80;99.90
5172;DHT22;2605;49.770;9.868;2023-05-19T10:26:52;19.80;99.90
5172;DHT22;2605;49.770;9.868;2023-05-19T10:29:24;19.80;99.90
5172;DHT22;2605;49.770;9.868;2023-05-19T10:31:51;19.90;99.90
5172;DHT22;2605;49.770;9.868;2023-05-19T10:36:58;20.30;99.90
5172;DHT22;2605;49.770;9.868;2023-05-19T10:39:31;20.40;99.90
5172;DHT22;2605;49.770;9.868;2023-05-19T10:42:03;20.20;99.90
5172;DHT22;2605;49.770;9.868;2023-05-19T10:44:57;20.30;99.90
5172;DHT22;2605;49.770;9.868;2023-05-19T10:47:25;20.40;99.90
5172;DHT22;2605;49.770;9.868;2023-05-19T10:49:53;20.30;99.90
5172;DHT22;2605;49.770;9.868;2023-05-19T10:52:19;20.40;99.90
5172;DHT22;2605;49.770;9.868;2023-05-19T10:54:53;20.50;99.90
5172;DHT22;2605;49.770;9.868;2023-05-19T10:57:25;20.80;99.90
5172;DHT22;2605;49.770;9.868;2023-05-19T10:59:52;21.00;99.90
5172;DHT22;2605;49.770;9.868;2023-05-19T11:02:41;21.10;99.90
5172;DHT22;2605;49.770;9.868;2023-05-19T11:05:12;21.00;99.90
5172;DHT22;2605;49.770;9.868;2023-05-19T11:07:43;21.00;99.90
5172;DHT22;2605;49.770;9.868;2023-05-19T11:10:09;20.80;99.90
5172;DHT22;2605;49.770;9.868;2023-05-19T11:12:42;20.60;99.90
5172;DHT22;2605;49.770;9.868;2023-05-19T11:15:11;20.40;99.90
5172;DHT22;2605;49.770;9.868;2023-05-19T11:17:39;20.20;99.90
5172;DHT22;2605;49.770;9.868;2023-05-19T11:20:08;20.20;99.90
5172;DHT22;2605;49.770;9.868;2023-05-19T11:25:46;20.20;99.90
5172;DHT22;2605;49.770;9.868;2023-05-19T11:28:17;20.40;99.90
5172;DHT22;2605;49.770;9.868;2023-05-19T11:30:44;20.60;99.90
5172;DHT22;2605;49.770;9.868;2023-05-19T11:33:11;20.40;99.90
5172;DHT22;2605;49.770;9.868;2023-05-19T11:35:38;20.40;99.90
5172;DHT22;2605;49.770;9.868;2023-05-19T11:38:05;20.50;99.90
5172;DHT22;2605;49.770;9.868;2023-05-19T11:40:31;20.80;99.90
5172;DHT22;2605;49.770;9.868;2023-05-19T11:42:57;21.10;99.90
5172;DHT22;2605;49.770;9.868;2023-05-19T11:45:27;20.70;99.90
5172;DHT22;2605;49.770;9.868;2023-05-19T11:47:57;20.30;99.90
5172;DHT22;2605;49.770;9.868;2023-05-19T11:50:23;20.50;99.90
5172;DHT22;2605;49.770;9.868;2023-05-19T11:52:50;20.90;99.90
5172;DHT22;2605;49.770;9.868;2023-05-19T11:55:20;21.30;99.90
5172;DHT22;2605;49.770;9.868;2023-05-19T11:57:58;21.50;99.90
5172;DHT22;2605;49.770;9.868;2023-05-19T12:00:25;21.50;99.90
5172;DHT22;2605;49.770;9.868;2023-05-19T12:02:50;21.50;99.90
5172;DHT22;2605;49.770;9.868;2023-05-19T12:05:26;21.60;99.90
5172;DHT22;2605;49.770;9.868;2023-05-19T12:07:53;21.60;99.90
5172;DHT22;2605;49.770;9.868;2023-05-19T12:10:37;21.70;99.90
5172;DHT22;2605;49.770;9.868;2023-05-19T12:13:04;21.70;99.90
5172;DHT22;2605;49.770;9.868;2023-05-19T12:15:32;21.70;99.90
5172;DHT22;2605;49.770;9.868;2023-05-19T12:17:59;21.50;99.90
5172;DHT22;2605;49.770;9.868;2023-05-19T12:20:27;20.90;99.90
5172;DHT22;2605;49.770;9.868;2023-05-19T12:22:56;21.10;99.90
5172;DHT22;2605;49.770;9.868;2023-05-19T12:25:22;21.20;99.90
5172;DHT22;2605;49.770;9.868;2023-05-19T12:27:48;21.50;99.90
5172;DHT22;2605;49.770;9.868;2023-05-19T12:30:17;21.80;99.90
5172;DHT22;2605;49.770;9.868;2023-05-19T12:32:45;22.20;99.90
5172;DHT22;2605;49.770;9.868;2023-05-19T12:35:10;22.40;99.90
5172;DHT22;2605;49.770;9.868;2023-05-19T12:37:40;22.80;99.90
5172;DHT22;2605;49.770;9.868;2023-05-19T12:40:06;22.90;99.90
5172;DHT22;2605;49.770;9.868;2023-05-19T12:42:32;23.10;99.90
5172;DHT22;2605;49.770;9.868;2023-05-19T12:45:01;23.60;99.90
5172;DHT22;2605;49.770;9.868;2023-05-19T12:47:34;23.90;99.90
5172;DHT22;2605;49.770;9.868;2023-05-19T12:50:09;24.60;99.90
5172;DHT22;2605;49.770;9.868;2023-05-19T12:52:43;24.80;99.90
5172;DHT22;2605;49.770;9.868;2023-05-19T12:55:09;25.00;99.90
5172;DHT22;2605;49.770;9.868;2023-05-19T12:57:37;24.90;99.90
5172;DHT22;2605;49.770;9.868;2023-05-19T13:00:04;24.80;99.90
5172;DHT22;2605;49.770;9.868;2023-05-19T13:05:19;24.20;99.90
5172;DHT22;2605;49.770;9.868;2023-05-19T13:07:56;23.90;99.90
5172;DHT22;2605;49.770;9.868;2023-05-19T13:10:25;23.90;99.90
5172;DHT22;2605;49.770;9.868;2023-05-19T13:12:53;24.00;99.90
5172;DHT22;2605;49.770;9.868;2023-05-19T13:15:18;23.60;99.90
5172;DHT22;2605;49.770;9.868;2023-05-19T13:17:44;23.40;99.90
5172;DHT22;2605;49.770;9.868;2023-05-19T13:20:11;23.10;99.90
5172;DHT22;2605;49.770;9.868;2023-05-19T13:22:37;23.10;99.90
5172;DHT22;2605;49.770;9.868;2023-05-19T13:25:02;22.30;99.90
5172;DHT22;2605;49.770;9.868;2023-05-19T13:27:28;22.40;99.90
5172;DHT22;2605;49.770;9.868;2023-05-19T13:29:53;23.10;99.90
5172;DHT22;2605;49.770;9.868;2023-05-19T13:32:19;23.50;99.90
5172;DHT22;2605;49.770;9.868;2023-05-19T13:34:44;23.30;99.90
5172;DHT22;2605;49.770;9.868;2023-05-19T13:37:10;22.30;99.90
5172;DHT22;2605;49.770;9.868;2023-05-19T13:39:36;21.80;99.90
5172;DHT22;2605;49.770;9.868;2023-05-19T13:42:02;21.50;99.90
5172;DHT22;2605;49.770;9.868;2023-05-19T13:44:27;22.00;99.90
5172;DHT22;2605;49.770;9.868;2023-05-19T13:46:53;21.90;99.90
5172;DHT22;2605;49.770;9.868;2023-05-19T13:49:18;21.60;99.90
5172;DHT22;2605;49.770;9.868;2023-05-19T13:51:43;21.80;99.90
5172;DHT22;2605;49.770;9.868;2023-05-19T13:54:09;22.00;99.90
5172;DHT22;2605;49.770;9.868;2023-05-19T13:56:35;22.40;99.90
5172;DHT22;2605;49.770;9.868;2023-05-19T13:59:01;22.50;99.90
5172;DHT22;2605;49.770;9.868;2023-05-19T14:01:28;22.00;99.90
5172;DHT22;2605;49.770;9.868;2023-05-19T14:03:53;21.80;99.90
5172;DHT22;2605;49.770;9.868;2023-05-19T14:06:19;21.80;99.90
5172;DHT22;2605;49.770;9.868;2023-05-19T14:08:45;21.80;99.90
5172;DHT22;2605;49.770;9.868;2023-05-19T14:11:19;21.70;99.90
5172;DHT22;2605;49.770;9.868;2023-05-19T14:13:48;21.60;99.90
5172;DHT22;2605;49.770;9.868;2023-05-19T14:16:15;21.40;99.90
5172;DHT22;2605;49.770;9.868;2023-05-19T14:18:40;21.00;99.90
5172;DHT22;2605;49.770;9.868;2023-05-19T14:21:07;21.10;99.90
5172;DHT22;2605;49.770;9.868;2023-05-19T14:23:32;21.10;99.90
5172;DHT22;2605;49.770;9.868;2023-05-19T14:26:01;21.30;99.90
5172;DHT22;2605;49.770;9.868;2023-05-19T14:28:26;21.50;99.90
5172;DHT22;2605;49.770;9.868;2023-05-19T14:30:52;21.90;99.90
5172;DHT22;2605;49.770;9.868;2023-05-19T14:33:19;22.20;99.90
5172;DHT22;2605;49.770;9.868;2023-05-19T14:35:45;22.40;99.90
5172;DHT22;2605;49.770;9.868;2023-05-19T14:38:11;22.50;99.90
5172;DHT22;2605;49.770;9.868;2023-05-19T14:40:37;23.70;99.90
5172;DHT22;2605;49.770;9.868;2023-05-19T14:43:05;23.90;99.90
5172;DHT22;2605;49.770;9.868;2023-05-19T14:45:31;24.40;99.90
5172;DHT22;2605;49.770;9.868;2023-05-19T14:47:56;25.00;99.90
5172;DHT22;2605;49.770;9.868;2023-05-19T14:50:22;26.80;99.90
5172;DHT22;2605;49.770;9.868;2023-05-19T14:52:47;26.90;99.90
5172;DHT22;2605;49.770;9.868;2023-05-19T14:55:13;28.90;99.90
5172;DHT22;2605;49.770;9.868;2023-05-19T14:57:38;30.70;99.90
5172;DHT22;2605;49.770;9.868;2023-05-19T15:00:04;33.40;99.90
5172;DHT22;2605;49.770;9.868;2023-05-19T15:02:30;34.30;99.90
5172;DHT22;2605;49.770;9.868;2023-05-19T15:04:56;32.00;99.90
5172;DHT22;2605;49.770;9.868;2023-05-19T15:07:21;31.00;99.90
5172;DHT22;2605;49.770;9.868;2023-05-19T15:09:48;29.10;99.90
5172;DHT22;2605;49.770;9.868;2023-05-19T15:12:14;30.10;99.90
5172;DHT22;2605;49.770;9.868;2023-05-19T15:14:39;28.50;99.90
5172;DHT22;2605;49.770;9.868;2023-05-19T15:17:05;29.70;99.90
5172;DHT22;2605;49.770;9.868;2023-05-19T15:19:30;31.10;99.90
5172;DHT22;2605;49.770;9.868;2023-05-19T15:21:56;29.70;99.90
5172;DHT22;2605;49.770;9.868;2023-05-19T15:24:21;28.50;99.90
5172;DHT22;2605;49.770;9.868;2023-05-19T15:26:47;29.90;99.90
5172;DHT22;2605;49.770;9.868;2023-05-19T15:29:12;30.30;99.90
5172;DHT22;2605;49.770;9.868;2023-05-19T15:31:38;30.30;99.90
5172;DHT22;2605;49.770;9.868;2023-05-19T15:34:03;30.50;99.90
5172;DHT22;2605;49.770;9.868;2023-05-19T15:36:29;30.60;99.90
5172;DHT22;2605;49.770;9.868;2023-05-19T15:38:55;30.90;99.90
5172;DHT22;2605;49.770;9.868;2023-05-19T15:41:21;31.40;99.90
5172;DHT22;2605;49.770;9.868;2023-05-19T15:43:46;31.30;99.90
5172;DHT22;2605;49.770;9.868;2023-05-19T15:46:12;31.50;99.90
5172;DHT22;2605;49.770;9.868;2023-05-19T15:48:40;30.90;99.90
5172;DHT22;2605;49.770;9.868;2023-05-19T15:51:05;30.80;99.90
5172;DHT22;2605;49.770;9.868;2023-05-19T15:53:31;31.00;99.90
5172;DHT22;2605;49.770;9.868;2023-05-19T15:55:56;32.00;99.90
5172;DHT22;2605;49.770;9.868;2023-05-19T15:58:22;32.00;99.90
5172;DHT22;2605;49.770;9.868;2023-05-19T16:00:48;32.30;99.90
5172;DHT22;2605;49.770;9.868;2023-05-19T16:03:13;29.40;99.90
5172;DHT22;2605;49.770;9.868;2023-05-19T16:05:39;27.30;99.90
5172;DHT22;2605;49.770;9.868;2023-05-19T16:08:04;28.70;99.90
5172;DHT22;2605;49.770;9.868;2023-05-19T16:10:30;29.70;99.90
5172;DHT22;2605;49.770;9.868;2023-05-19T16:12:55;30.30;99.90
5172;DHT22;2605;49.770;9.868;2023-05-19T16:15:21;28.10;99.90
5172;DHT22;2605;49.770;9.868;2023-05-19T16:17:46;26.70;99.90
5172;DHT22;2605;49.770;9.868;2023-05-19T16:20:12;25.60;99.90
5172;DHT22;2605;49.770;9.868;2023-05-19T16:22:37;24.20;99.90
5172;DHT22;2605;49.770;9.868;2023-05-19T16:25:03;23.40;99.90